Time;durP1;ratioP1;P1;durP2;ratioP2;P2;SDS_P1;SDS_P2;PMS_P1;PMS_P2;Temp;Humidity;BMP_temperature;BMP_pressure;BME280_temperature;BME280_humidity;BME280_pressure;Samples;Min_cycle;Max_cycle;Signal;HPM_P1;HPM_P2
2021/12/12 00:01:26;;;;;;;6.43;4.43;;;6.50;88.60;;;6.82;59.97;99540.72;4857927;28;114553;-78
2021/12/12 00:04:08;;;;;;;4.60;3.93;;;6.30;88.50;;;6.84;59.82;99537.69;4873144;28;112903;-78
2021/12/12 00:06:38;;;;;;;5.43;3.90;;;6.30;88.50;;;6.84;60.18;99540.44;4858797;28;123631;-80
2021/12/12 00:09:16;;;;;;;4.33;3.80;;;7.80;90.00;;;6.84;59.73;99538.50;4871834;28;124700;-79
2021/12/12 00:11:44;;;;;;;5.60;4.60;;;7.20;89.40;;;6.83;59.62;99547.84;4855154;29;114652;-79
2021/12/12 00:14:26;;;;;;;6.10;3.60;;;6.40;88.70;;;6.89;59.98;99548.69;4870507;28;113664;-79
2021/12/12 00:16:56;;;;;;;6.73;4.33;;;6.30;88.80;;;6.89;60.10;99545.13;4871416;28;123883;-78
2021/12/12 00:19:26;;;;;;;5.53;3.87;;;6.40;88.90;;;6.90;60.33;99555.00;4852403;28;123649;-78
2021/12/12 00:21:58;;;;;;;5.43;4.50;;;6.40;89.00;;;6.92;60.04;99561.88;4859713;28;113839;-79
2021/12/12 00:24:26;;;;;;;5.27;4.10;;;6.50;89.00;;;6.92;60.26;99564.63;4873574;28;114018;-78
2021/12/12 00:26:55;;;;;;;4.77;3.57;;;6.40;88.90;;;6.92;60.30;99559.13;4873327;28;123567;-77
2021/12/12 00:29:23;;;;;;;4.27;3.87;;;6.40;88.90;;;6.96;60.27;99562.16;4871206;28;125882;-78
2021/12/12 00:31:57;;;;;;;4.30;3.90;;;6.50;88.90;;;6.98;60.23;99554.47;4857101;28;114409;-77
2021/12/12 00:34:27;;;;;;;4.97;3.57;;;6.40;88.80;;;6.98;59.70;99565.47;4857922;28;114504;-78
2021/12/12 00:36:54;;;;;;;6.63;4.00;;;6.40;88.70;;;6.96;59.42;99557.50;4853659;28;123797;-76
2021/12/12 00:39:27;;;;;;;4.83;4.17;;;6.40;88.60;;;6.97;59.91;99563.81;4856785;28;123847;-77
2021/12/12 00:42:10;;;;;;;7.17;3.80;;;6.40;88.60;;;6.98;59.43;99560.78;4870924;28;114090;-77
2021/12/12 00:44:41;;;;;;;4.70;3.70;;;6.40;88.60;;;6.97;59.68;99569.31;4860776;28;113799;-79
2021/12/12 00:47:13;;;;;;;5.80;4.13;;;7.10;89.20;;;6.97;59.52;99575.63;4869881;28;124525;-80
2021/12/12 00:49:42;;;;;;;7.20;4.50;;;7.20;89.20;;;6.91;59.60;99571.22;4854888;29;123794;-77
2021/12/12 00:52:13;;;;;;;6.33;4.77;;;6.40;88.50;;;6.92;59.88;99581.09;4853512;28;113222;-78
2021/12/12 00:54:42;;;;;;;6.57;4.03;;;7.40;89.40;;;6.92;59.34;99583.84;4868561;28;114122;-77
2021/12/12 00:57:13;;;;;;;5.77;4.37;;;6.70;88.70;;;6.94;60.01;99575.34;4855622;29;123507;-77
2021/12/12 00:59:41;;;;;;;5.97;3.80;;;7.90;89.90;;;6.96;59.63;99584.13;4840856;29;122904;-77
2021/12/12 01:02:20;;;;;;;5.80;4.10;;;6.80;88.90;;;6.98;59.68;99590.19;4863179;28;113862;-77
2021/12/12 01:04:55;;;;;;;6.17;4.40;;;6.40;88.50;;;6.98;59.75;99588.25;4856447;28;113961;-76
2021/12/12 01:07:34;;;;;;;7.30;5.50;;;7.40;89.50;;;6.99;59.68;99584.44;4838986;28;124291;-78
2021/12/12 01:10:15;;;;;;;6.37;4.40;;;6.40;88.60;;;7.00;59.46;99586.09;4872916;28;124364;-77
2021/12/12 01:12:43;;;;;;;5.93;4.80;;;6.40;88.60;;;6.99;60.08;99589.94;4875975;28;114266;-79
2021/12/12 01:15:37;;;;;;;7.37;4.73;;;7.30;89.40;;;7.02;59.50;99596.81;4857627;28;114295;-78
2021/12/12 01:18:11;;;;;;;5.80;4.20;;;6.70;88.80;;;7.01;59.59;99600.63;4872071;28;124087;-78
2021/12/12 01:20:46;;;;;;;8.30;4.67;;;6.40;88.60;;;7.00;59.69;99610.81;4873510;28;124866;-77
2021/12/12 01:23:43;;;;;;;5.20;4.13;;;6.50;88.60;;;6.97;60.00;99616.03;4855227;29;115188;-77
2021/12/12 01:26:10;;;;;;;7.43;4.43;;;6.40;88.40;;;6.89;59.70;99611.88;4860373;28;114867;-79
2021/12/12 01:28:42;;;;;;;6.00;4.13;;;7.30;89.10;;;6.85;59.97;99611.59;4871341;28;124047;-78
2021/12/12 01:31:16;;;;;;;7.03;4.33;;;6.40;88.20;;;6.82;59.85;99606.63;4856889;28;123728;-78
2021/12/12 01:33:43;;;;;;;3.90;3.53;;;6.20;88.00;;;6.80;59.30;99618.97;4872730;28;114526;-76
2021/12/12 01:36:23;;;;;;;6.53;3.80;;;6.60;88.40;;;6.81;59.52;99606.88;4868820;28;113810;-77
2021/12/12 01:38:54;;;;;;;4.53;4.03;;;6.30;88.10;;;6.78;59.17;99604.69;4854058;29;123994;-77
2021/12/12 01:41:58;;;;;;;4.43;3.43;;;6.30;88.00;;;6.77;59.23;99600.25;4854968;28;124712;-80
2021/12/12 01:44:57;;;;;;;5.27;3.93;;;6.30;88.00;;;6.75;59.50;99606.03;4857423;29;114225;-77
2021/12/12 01:47:34;;;;;;;6.97;4.23;;;6.30;88.00;;;6.73;59.27;99607.41;4856047;28;113657;-77
2021/12/12 01:50:12;;;;;;;9.23;4.10;;;6.30;88.00;;;6.70;59.24;99607.94;4872322;28;124304;-77
2021/12/12 01:52:40;;;;;;;6.20;3.83;;;6.20;87.90;;;6.66;59.08;99612.31;4866980;28;124257;-77
2021/12/12 01:55:53;;;;;;;5.70;3.57;;;7.10;88.70;;;6.64;59.44;99616.16;4853521;29;114843;-78
2021/12/12 01:58:26;;;;;;;5.17;4.10;;;6.20;87.80;;;6.60;59.74;99619.69;4873613;28;113906;-78
2021/12/12 02:01:07;;;;;;;5.37;3.73;;;6.20;87.80;;;6.55;59.61;99620.47;4857228;28;123502;-77
2021/12/12 02:03:40;;;;;;;7.10;3.97;;;6.20;87.80;;;6.56;59.18;99619.41;4855089;29;123795;-77
2021/12/12 02:06:10;;;;;;;5.10;3.80;;;7.00;88.60;;;6.56;59.75;99616.66;4839991;28;114757;-76
2021/12/12 02:08:39;;;;;;;4.37;3.60;;;6.10;87.80;;;6.59;59.76;99615.31;4873423;28;114291;-77
2021/12/12 02:11:15;;;;;;;6.93;3.87;;;6.40;88.10;;;6.62;59.47;99618.31;4869155;28;124978;-78
2021/12/12 02:13:51;;;;;;;6.57;3.43;;;6.40;88.00;;;6.62;59.38;99629.31;4838295;28;122853;-77
2021/12/12 02:16:18;;;;;;;4.10;3.70;;;7.40;88.90;;;6.57;59.69;99621.03;4867713;28;115221;-77
2021/12/12 02:18:49;;;;;;;4.37;3.30;;;7.00;88.40;;;6.54;59.41;99627.06;4840748;28;114860;-78
2021/12/12 02:21:28;;;;;;;3.90;3.20;;;6.20;87.50;;;6.49;59.47;99635.28;4873109;28;123962;-77
2021/12/12 02:37:37;;;;;;;7.23;3.80;;;7.00;87.90;;;6.35;59.44;99656.03;4854782;28;113985;-78
2021/12/12 02:40:28;;;;;;;4.80;3.23;;;7.10;87.90;;;6.38;58.62;99655.50;4848449;28;113990;-77
2021/12/12 02:42:58;;;;;;;3.30;3.00;;;6.20;87.70;;;6.34;58.39;99648.88;4862495;28;124178;-77
2021/12/12 02:45:28;;;;;;;4.20;3.20;;;7.00;87.60;;;6.33;58.44;99647.25;4873101;28;123666;-77
2021/12/12 02:48:01;;;;;;;6.10;3.30;;;5.90;86.60;;;6.33;58.53;99639.00;4875639;28;113340;-78
2021/12/12 02:50:41;;;;;;;5.33;3.30;;;5.90;86.50;;;6.35;58.71;99639.56;4850230;28;114101;-79
2021/12/12 02:53:19;;;;;;;6.37;3.03;;;5.90;86.40;;;6.34;58.51;99637.91;4883844;28;124043;-77
2021/12/12 02:55:55;;;;;;;5.13;3.13;;;6.40;86.80;;;6.34;58.78;99646.13;4878082;28;124422;-78
2021/12/12 02:58:22;;;;;;;3.30;2.70;;;7.40;87.50;;;6.31;58.95;99649.41;4894696;28;114367;-80
2021/12/12 03:01:05;;;;;;;4.20;2.60;;;7.40;87.50;;;6.35;58.17;99645.06;4879182;28;113972;-76
2021/12/12 03:03:36;;;;;;;3.10;2.80;;;7.10;87.10;;;6.33;58.14;99636.25;4891468;28;124181;-79
2021/12/12 03:06:06;;;;;;;4.07;2.57;;;5.90;86.00;;;6.34;58.15;99627.78;4892022;28;123343;-78
2021/12/12 03:08:35;;;;;;;3.33;2.50;;;5.90;86.00;;;6.36;57.86;99630.25;4883983;28;115178;-78
2021/12/12 03:11:02;;;;;;;4.43;3.10;;;5.90;86.00;;;6.36;57.87;99622.00;4873150;28;115240;-77
2021/12/12 03:13:30;;;;;;;6.10;2.80;;;5.90;85.80;;;6.36;57.95;99619.25;4881391;28;124082;-78
2021/12/12 03:15:57;;;;;;;3.23;2.60;;;5.90;85.60;;;6.35;57.68;99628.59;4871288;28;123957;-79
2021/12/12 03:18:30;;;;;;;3.87;2.63;;;5.90;85.40;;;6.35;58.21;99623.94;4883237;28;114458;-77
2021/12/12 03:21:04;;;;;;;3.27;2.70;;;6.90;86.40;;;6.37;57.39;99637.41;4896162;28;112689;-80
2021/12/12 03:23:35;;;;;;;4.73;2.90;;;6.80;86.30;;;6.37;57.48;99626.44;4887517;28;123213;-77
2021/12/12 03:26:08;;;;;;;2.73;2.50;;;5.90;85.50;;;6.36;57.06;99624.75;4862839;28;121826;-77
2021/12/12 03:28:39;;;;;;;4.13;2.53;;;5.90;85.40;;;6.37;57.17;99623.69;4883502;28;114483;-79
2021/12/12 03:31:17;;;;;;;3.30;2.80;;;6.80;86.20;;;6.40;57.25;99631.38;4894356;28;114046;-77
2021/12/12 03:33:45;;;;;;;4.23;2.70;;;6.90;86.20;;;6.42;57.52;99626.44;4890230;28;124034;-80
2021/12/12 03:36:14;;;;;;;4.17;2.37;;;5.90;85.40;;;6.43;57.69;99625.34;4865108;28;122615;-77
2021/12/12 03:38:50;;;;;;;7.07;2.63;;;7.00;86.30;;;6.46;57.42;99627.56;4884595;28;114221;-77
2021/12/12 03:41:37;;;;;;;4.00;2.80;;;6.30;85.60;;;6.46;57.21;99635.81;4874808;28;113035;-78
2021/12/12 03:44:15;;;;;;;4.60;3.03;;;5.90;85.10;;;6.43;57.24;99636.34;4872608;28;124512;-78
2021/12/12 03:46:42;;;;;;;6.30;3.30;;;5.90;85.10;;;6.43;57.49;99661.03;4872256;28;124806;-78
2021/12/12 03:49:10;;;;;;;2.83;2.60;;;5.90;85.10;;;6.44;57.42;99654.44;4871660;28;114957;-78
2021/12/12 03:51:40;;;;;;;3.60;2.33;;;5.90;85.10;;;6.43;56.59;99650.06;4892092;28;113159;-80
2021/12/12 03:54:07;;;;;;;4.47;2.20;;;5.90;85.10;;;6.40;57.23;99643.19;4893849;28;124550;-79
2021/12/12 03:56:34;;;;;;;2.70;2.47;;;5.90;85.00;;;6.39;57.04;99649.78;4894433;28;123908;-80
2021/12/12 03:59:02;;;;;;;3.87;2.80;;;7.10;86.10;;;6.38;57.09;99647.28;4882449;28;114792;-79
2021/12/12 04:01:39;;;;;;;4.07;2.90;;;5.90;85.00;;;6.38;57.17;99644.53;4888611;28;115253;-78
2021/12/12 04:04:26;;;;;;;4.40;2.10;;;6.60;85.70;;;6.35;57.55;99656.88;4872451;28;123123;-82
2021/12/12 04:06:55;;;;;;;3.93;2.33;;;5.80;85.00;;;6.33;57.65;99649.97;4882437;28;122603;-78
2021/12/12 04:09:22;;;;;;;4.83;2.70;;;5.90;85.20;;;6.32;57.37;99651.91;4880985;28;116192;-78
2021/12/12 04:11:59;;;;;;;3.40;2.30;;;5.80;85.10;;;6.33;57.74;99653.56;4875262;28;113996;-77
2021/12/12 04:14:28;;;;;;;2.33;2.07;;;5.80;85.20;;;6.31;57.31;99655.72;4877536;28;123733;-77
2021/12/12 04:17:01;;;;;;;3.90;2.57;;;5.80;85.20;;;6.31;57.42;99643.94;4892006;28;124164;-77
2021/12/12 04:19:29;;;;;;;3.90;2.80;;;7.20;86.50;;;6.29;57.97;99646.13;4881174;28;114167;-77
2021/12/12 04:21:55;;;;;;;4.07;2.30;;;7.40;86.70;;;6.27;57.70;99645.56;4858541;28;113715;-77
2021/12/12 04:24:30;;;;;;;5.47;2.63;;;6.80;86.20;;;6.28;56.98;99652.69;4886203;28;124165;-77
2021/12/12 04:26:57;;;;;;;7.17;2.70;;;5.70;85.30;;;6.24;57.91;99649.66;4893695;28;124140;-77
2021/12/12 04:29:36;;;;;;;3.33;2.63;;;6.70;86.20;;;6.24;58.02;99654.31;4883048;28;113480;-77
2021/12/12 04:32:10;;;;;;;3.63;3.20;;;5.80;85.40;;;6.22;57.67;99656.50;4874069;28;113718;-77
2021/12/12 04:34:46;;;;;;;3.60;2.47;;;7.30;86.90;;;6.18;57.61;99662.50;4877793;28;124104;-77
2021/12/12 04:37:13;;;;;;;4.93;3.13;;;5.70;85.50;;;6.16;57.70;99664.69;4876884;28;123730;-77
2021/12/12 04:39:50;;;;;;;3.90;2.63;;;5.70;85.50;;;6.15;58.05;99668.53;4874251;28;114381;-77
2021/12/12 04:42:24;;;;;;;3.43;2.60;;;5.80;85.70;;;6.12;57.68;99668.19;4875325;28;114344;-77
2021/12/12 04:45:17;;;;;;;3.17;2.33;;;5.70;85.70;;;6.10;58.49;99668.47;4894948;28;123799;-77
2021/12/12 04:51:42;;;;;;;4.37;3.13;;;5.60;85.60;;;5.96;58.53;99675.47;4867371;28;115695;-77
2021/12/12 04:54:32;;;;;;;2.70;2.33;;;5.50;85.60;;;5.93;58.62;99686.94;4858092;28;113973;-78
2021/12/12 04:57:21;;;;;;;4.40;2.90;;;6.30;86.50;;;5.90;58.40;99684.72;4878358;28;98833;-77
2021/12/12 05:00:09;;;;;;;3.93;2.80;;;6.90;87.10;;;5.89;59.00;99685.81;4892464;28;124196;-77
2021/12/12 05:03:23;;;;;;;4.40;3.07;;;5.40;85.90;;;5.84;58.56;99678.34;4891952;28;113986;-77
2021/12/12 05:06:15;;;;;;;3.67;2.70;;;5.40;86.00;;;5.82;58.86;99688.75;4853137;28;114014;-78
2021/12/12 05:09:13;;;;;;;6.27;2.77;;;5.40;86.00;;;5.75;58.03;99679.94;4885959;28;123794;-77
2021/12/12 05:11:45;;;;;;;3.87;2.70;;;5.50;86.10;;;5.70;59.34;99672.47;4890267;28;123672;-77
2021/12/12 05:14:22;;;;;;;3.73;2.70;;;5.30;86.00;;;5.70;58.47;99683.44;4871536;28;114804;-78
2021/12/12 05:17:33;;;;;;;2.70;2.50;;;6.10;86.80;;;5.68;59.00;99684.78;4875879;28;113775;-78
2021/12/12 05:20:05;;;;;;;3.63;2.63;;;5.20;86.00;;;5.62;58.77;99683.06;4876088;28;123949;-78
2021/12/12 05:22:37;;;;;;;5.50;2.90;;;5.80;86.50;;;5.57;58.94;99683.03;4891095;28;123321;-78
2021/12/12 05:25:14;;;;;;;5.47;3.50;;;6.50;87.20;;;5.52;59.38;99678.31;4890644;28;114194;-77
2021/12/12 05:27:44;;;;;;;4.30;3.43;;;5.10;86.00;;;5.46;58.55;99679.34;4891761;28;113828;-78
2021/12/12 05:30:17;;;;;;;4.33;2.80;;;5.10;86.00;;;5.43;58.79;99688.91;4871369;28;124625;-77
2021/12/12 05:32:45;;;;;;;4.10;3.30;;;5.00;85.90;;;5.40;58.69;99702.28;4873231;28;124203;-77
2021/12/12 05:35:16;;;;;;;8.10;3.70;;;5.90;86.80;;;5.39;59.10;99681.44;4891651;28;113639;-77
2021/12/12 05:37:49;;;;;;;4.90;3.47;;;5.10;86.20;;;5.39;58.96;99686.94;4886097;28;114501;-77
2021/12/12 05:40:19;;;;;;;4.97;2.97;;;6.40;87.30;;;5.36;59.30;99685.53;4886548;28;123924;-76
2021/12/12 05:42:46;;;;;;;3.10;2.60;;;6.10;87.10;;;5.34;58.99;99690.44;4873206;28;123685;-78
2021/12/12 05:45:14;;;;;;;3.93;3.17;;;4.90;86.00;;;5.33;58.75;99688.78;4840177;28;115204;-77
2021/12/12 05:47:41;;;;;;;2.80;2.50;;;6.10;87.00;;;5.32;58.66;99687.97;4873440;28;114860;-76
2021/12/12 05:50:09;;;;;;;6.23;3.57;;;6.00;86.90;;;5.31;58.25;99693.69;4884861;28;124014;-77
2021/12/12 05:52:36;;;;;;;5.50;2.90;;;4.80;85.90;;;5.30;58.60;99692.84;4890299;28;123795;-77
2021/12/12 05:55:07;;;;;;;2.63;2.43;;;4.80;85.80;;;5.32;58.73;99689.88;4863527;28;114108;-76
2021/12/12 05:57:35;;;;;;;3.13;2.67;;;4.80;85.90;;;5.31;58.98;99690.94;4858161;28;113005;-77
2021/12/12 06:00:11;;;;;;;5.27;2.97;;;6.20;87.10;;;5.32;58.65;99698.09;4872299;28;123972;-79
2021/12/12 06:02:38;;;;;;;2.87;2.60;;;4.90;85.90;;;5.27;58.27;99682.41;4887619;28;123929;-77
2021/12/12 06:05:08;;;;;;;3.90;3.00;;;4.80;85.70;;;5.26;58.78;99686.22;4870613;28;114191;-78
2021/12/12 06:07:35;;;;;;;4.10;2.73;;;4.80;85.70;;;5.25;58.51;99692.78;4855029;29;113777;-78
2021/12/12 06:10:13;;;;;;;4.47;3.03;;;5.90;86.80;;;5.26;58.28;99694.44;4856824;28;124466;-78
2021/12/12 06:12:40;;;;;;;3.87;2.90;;;4.80;85.80;;;5.24;58.32;99695.81;4872459;28;123682;-77
2021/12/12 06:15:12;;;;;;;3.90;2.70;;;5.90;86.70;;;5.25;58.10;99697.44;4838608;29;113453;-79
2021/12/12 06:17:40;;;;;;;3.10;2.80;;;6.30;87.10;;;5.19;58.82;99702.03;4839513;29;113126;-78
2021/12/12 06:20:09;;;;;;;4.83;3.10;;;5.70;86.50;;;5.17;58.67;99709.69;4862241;28;123842;-78
2021/12/12 06:22:39;;;;;;;3.50;2.90;;;4.80;85.70;;;5.17;58.54;99712.41;4874993;28;123444;-78
2021/12/12 06:25:09;;;;;;;3.43;2.77;;;4.70;85.60;;;5.17;58.26;99717.91;4870156;28;114218;-77
2021/12/12 06:27:39;;;;;;;4.00;2.70;;;4.70;85.80;;;5.18;58.51;99724.19;4876364;28;113694;-77
2021/12/12 06:30:13;;;;;;;3.50;3.10;;;5.40;86.40;;;5.20;58.26;99728.34;4868733;28;124760;-79
2021/12/12 06:32:40;;;;;;;4.10;3.27;;;4.70;85.80;;;5.16;58.72;99729.94;4867364;28;123915;-76
2021/12/12 06:35:10;;;;;;;3.70;3.00;;;5.60;86.60;;;5.18;58.91;99735.16;4864785;28;116444;-77
2021/12/12 06:37:37;;;;;;;6.03;3.23;;;4.70;85.80;;;5.18;58.63;99735.97;4862179;28;114909;-77
2021/12/12 06:40:08;;;;;;;4.90;2.57;;;5.80;86.80;;;5.17;58.06;99725.28;4872096;28;124794;-77
2021/12/12 06:42:35;;;;;;;4.30;3.23;;;4.70;85.80;;;5.15;58.64;99736.50;4850824;28;123237;-77
2021/12/12 06:45:04;;;;;;;4.70;3.50;;;4.70;85.90;;;5.15;58.77;99739.22;4872080;28;114000;-76
2021/12/12 06:47:31;;;;;;;3.50;3.20;;;5.70;86.70;;;5.15;58.31;99738.41;4863278;28;113911;-80
2021/12/12 06:49:59;;;;;;;2.63;2.43;;;4.70;85.80;;;5.17;58.73;99756.25;4854759;28;122766;-78
2021/12/12 06:52:27;;;;;;;3.30;2.80;;;5.00;86.10;;;5.15;59.05;99750.19;4864802;28;124232;-78
2021/12/12 06:54:54;;;;;;;3.40;2.93;;;4.70;85.80;;;5.14;58.58;99756.75;4851873;29;113173;-78
2021/12/12 06:57:21;;;;;;;4.43;3.03;;;4.70;85.80;;;5.12;59.18;99756.19;4862375;28;114017;-78
2021/12/12 06:59:50;;;;;;;3.30;2.73;;;4.70;85.80;;;5.13;59.37;99757.84;4840043;29;124469;-77
2021/12/12 07:02:18;;;;;;;3.10;2.60;;;4.70;85.90;;;5.13;58.27;99760.59;4853268;28;124230;-77
2021/12/12 07:04:45;;;;;;;3.87;2.53;;;5.20;86.40;;;5.13;59.01;99757.00;4853762;29;114770;-78
2021/12/12 07:07:17;;;;;;;4.90;3.80;;;5.60;86.70;;;5.18;58.74;99757.91;4860189;28;113959;-78
2021/12/12 07:09:46;;;;;;;3.47;2.90;;;4.70;86.10;;;5.17;58.71;99763.66;4852918;29;123999;-77
2021/12/12 07:12:15;;;;;;;3.40;3.10;;;5.80;87.00;;;5.13;59.35;99755.13;4852452;28;123645;-77
2021/12/12 07:14:43;;;;;;;4.03;3.40;;;6.20;87.40;;;5.13;58.98;99759.75;4858929;28;114949;-77
2021/12/12 07:17:11;;;;;;;3.87;2.87;;;4.70;86.10;;;5.13;58.91;99749.63;4870629;28;113828;-77
2021/12/12 07:19:40;;;;;;;4.13;3.33;;;6.20;87.50;;;5.14;59.36;99756.75;4866433;28;123990;-78
2021/12/12 07:22:08;;;;;;;3.40;3.10;;;5.80;87.20;;;5.15;58.82;99755.66;4852617;29;123885;-77
2021/12/12 07:24:36;;;;;;;4.37;3.50;;;5.90;87.20;;;5.18;59.24;99751.59;4842076;28;115073;-79
2021/12/12 07:27:05;;;;;;;3.50;2.70;;;5.50;87.00;;;5.20;58.63;99755.75;4871771;28;114905;-77
2021/12/12 07:29:32;;;;;;;4.10;2.67;;;4.70;86.30;;;5.20;58.31;99761.22;4866798;28;123950;-77
2021/12/12 07:32:00;;;;;;;4.70;3.47;;;5.60;87.10;;;5.18;59.31;99757.91;4838959;29;122711;-78
2021/12/12 07:34:28;;;;;;;3.83;3.23;;;5.90;87.30;;;5.16;58.95;99762.81;4861450;28;114200;-76
2021/12/12 07:37:00;;;;;;;4.40;3.33;;;6.00;87.40;;;5.16;58.76;99760.09;4871833;28;113840;-78
2021/12/12 07:39:29;;;;;;;6.83;4.03;;;6.20;87.60;;;5.14;58.78;99767.72;4879669;28;123980;-77
2021/12/12 07:41:59;;;;;;;5.83;3.37;;;6.20;87.60;;;5.14;58.84;99769.63;4848634;28;124160;-82
2021/12/12 07:44:31;;;;;;;4.43;3.37;;;4.70;86.30;;;5.13;59.05;99766.06;4876146;28;114373;-78
2021/12/12 07:46:58;;;;;;;5.23;3.70;;;4.60;86.20;;;5.11;59.42;99764.66;4873092;28;113923;-78
2021/12/12 07:49:32;;;;;;;4.70;3.73;;;5.50;87.00;;;5.11;59.34;99761.94;4855665;28;124057;-76
2021/12/12 07:52:01;;;;;;;3.80;3.20;;;4.60;86.30;;;5.06;59.29;99776.38;4865847;28;123807;-76
2021/12/12 07:54:29;;;;;;;4.03;3.20;;;5.80;87.40;;;5.06;59.06;99762.69;4874702;28;114347;-77
2021/12/12 07:56:56;;;;;;;4.07;3.17;;;6.00;87.50;;;5.11;59.08;99770.16;4874509;28;113894;-77
2021/12/12 07:59:23;;;;;;;3.50;3.20;;;6.00;87.70;;;5.13;58.79;99766.06;4856647;28;124049;-76
2021/12/12 08:01:52;;;;;;;4.50;3.03;;;5.70;87.40;;;5.16;58.45;99764.72;4851047;29;124221;-77
2021/12/12 08:04:24;;;;;;;6.00;4.17;;;6.10;87.80;;;5.18;58.84;99760.63;4841275;28;114052;-76
2021/12/12 08:06:51;;;;;;;4.93;3.83;;;6.30;87.90;;;5.21;58.67;99759.31;4858250;28;114007;-77
2021/12/12 08:09:21;;;;;;;3.93;3.17;;;5.30;87.00;;;5.24;59.33;99759.63;4855052;28;123848;-76
2021/12/12 08:11:49;;;;;;;4.20;3.07;;;5.80;87.30;;;5.24;59.25;99762.38;4845977;28;123765;-75
2021/12/12 08:14:23;;;;;;;4.40;3.30;;;6.90;88.10;;;5.26;58.43;99762.09;4853535;28;114746;-76
2021/12/12 08:16:52;;;;;;;4.60;3.77;;;5.20;86.60;;;5.24;58.94;99762.38;4870532;28;115033;-76
2021/12/12 08:19:23;;;;;;;5.20;3.33;;;6.10;87.30;;;5.28;58.17;99777.22;4870110;28;124079;-76
2021/12/12 08:21:55;;;;;;;3.53;3.03;;;5.50;86.80;;;5.31;58.73;99773.97;4865064;28;124209;-76
2021/12/12 08:24:22;;;;;;;3.40;2.93;;;3.50;85.00;;;5.31;58.38;99773.97;4872290;28;116040;-76
2021/12/12 08:26:49;;;;;;;4.27;2.93;;;4.30;85.60;;;5.35;58.67;99767.97;4857293;28;113563;-75
2021/12/12 08:29:17;;;;;;;4.20;3.47;;;6.50;87.50;;;5.38;58.63;99767.50;4852564;28;124058;-75
2021/12/12 08:31:46;;;;;;;4.97;3.30;;;6.00;87.10;;;5.42;58.88;99763.13;4869391;28;123795;-76
2021/12/12 08:34:14;;;;;;;3.13;2.50;;;5.70;86.70;;;5.41;58.43;99767.78;4873524;28;114193;-75
2021/12/12 08:36:48;;;;;;;3.27;2.77;;;5.90;86.80;;;5.45;58.52;99770.84;4859653;28;112828;-76
2021/12/12 08:39:15;;;;;;;3.33;2.60;;;4.80;85.80;;;5.48;58.14;99770.34;4871919;28;123791;-76
2021/12/12 08:41:45;;;;;;;4.80;2.50;;;5.90;86.60;;;5.49;57.90;99755.56;4873512;28;123686;-76
2021/12/12 08:44:13;;;;;;;2.87;2.23;;;5.00;85.70;;;5.53;58.27;99751.22;4862804;28;114425;-76
2021/12/12 08:46:47;;;;;;;2.87;2.57;;;6.20;86.80;;;5.59;58.64;99758.44;4873791;28;113967;-78
2021/12/12 08:49:16;;;;;;;2.90;2.57;;;5.60;86.10;;;5.60;57.89;99753.78;4865803;28;124572;-77
2021/12/12 08:51:50;;;;;;;3.40;2.60;;;6.10;86.40;;;5.62;57.97;99760.66;4868721;28;123809;-77
2021/12/12 08:54:26;;;;;;;2.70;2.40;;;5.10;86.20;;;5.65;58.35;99762.06;4845524;28;113703;-77
2021/12/12 08:57:05;;;;;;;3.10;2.27;;;5.20;85.40;;;5.68;57.76;99772.50;4872818;28;113870;-78
2021/12/12 08:59:37;;;;;;;2.77;2.33;;;5.10;85.20;;;5.68;57.39;99776.06;4870049;28;124136;-77
2021/12/12 09:02:10;;;;;;;3.90;2.87;;;6.60;86.40;;;5.73;57.50;99778.88;4854979;28;123717;-79
2021/12/12 09:04:47;;;;;;;3.00;2.43;;;6.00;85.80;;;5.80;57.43;99775.94;4843709;28;115219;-77
2021/12/12 09:07:27;;;;;;;2.63;2.43;;;5.50;85.30;;;5.87;57.28;99781.22;4861672;28;114916;-77
2021/12/12 09:10:13;;;;;;;2.50;2.20;;;6.90;86.50;;;5.92;56.43;99773.06;4858567;28;123964;-82
2021/12/12 09:12:51;;;;;;;3.83;2.50;;;5.30;84.90;;;5.93;56.70;99780.19;4871628;28;123678;-77
2021/12/12 09:15:31;;;;;;;2.33;2.10;;;5.30;84.70;;;5.96;56.84;99776.97;4848091;28;115394;-76
2021/12/12 09:18:19;;;;;;;2.63;2.07;;;5.30;84.50;;;5.96;56.84;99765.97;4869018;28;114437;-76
2021/12/12 09:21:37;;;;;;;3.27;2.40;;;5.40;84.40;;;5.97;57.05;99773.16;4869142;28;123491;-77
2021/12/12 09:24:14;;;;;;;2.17;1.97;;;5.40;84.30;;;5.99;56.89;99768.22;4864402;28;124039;-79
2021/12/12 09:26:52;;;;;;;3.37;1.90;;;5.50;84.40;;;6.04;56.49;99773.75;4867437;28;114148;-77
2021/12/12 09:29:46;;;;;;;2.10;1.90;;;7.10;85.70;;;6.07;56.80;99765.03;4868682;28;114615;-77
2021/12/12 09:32:27;;;;;;;2.50;2.10;;;5.50;84.10;;;6.09;56.61;99762.81;4853707;28;124008;-77
2021/12/12 09:35:21;;;;;;;2.20;2.00;;;6.50;84.90;;;6.10;56.67;99755.41;4868230;28;124004;-77
2021/12/12 09:38:07;;;;;;;4.13;2.37;;;5.60;83.80;;;6.12;56.37;99753.25;4854047;28;114966;-77
2021/12/12 09:40:49;;;;;;;2.40;2.07;;;5.50;83.70;;;6.15;56.48;99764.56;4855428;28;113235;-77
2021/12/12 09:43:59;;;;;;;3.10;2.30;;;5.60;83.70;;;6.21;55.90;99754.47;4870149;28;123914;-77
2021/12/12 09:47:00;;;;;;;2.07;1.80;;;6.30;84.30;;;6.29;56.40;99756.72;4855256;28;123418;-76
2021/12/12 09:54:02;;;;;;;2.97;2.67;;;5.80;83.60;;;6.41;56.14;99762.03;4868795;28;114508;-76
2021/12/12 09:56:37;;;;;;;3.83;2.30;;;5.80;83.40;;;6.46;55.93;99762.06;4812139;29;123270;-80
2021/12/12 09:59:41;;;;;;;3.17;2.40;;;5.90;83.60;;;6.58;55.85;99743.53;4853216;29;123589;-78
2021/12/12 10:02:39;;;;;;;2.20;2.00;;;6.00;83.60;;;6.67;55.72;99751.28;4859101;28;115401;-81
2021/12/12 10:05:19;;;;;;;3.17;2.17;;;6.00;83.30;;;6.70;54.82;99745.25;4862704;28;114876;-78
2021/12/12 10:08:31;;;;;;;2.17;1.97;;;6.10;83.10;;;6.76;55.70;99733.19;4837931;29;123995;-78
2021/12/12 10:11:23;;;;;;;2.40;2.00;;;6.20;83.10;;;6.81;55.15;99733.22;4856989;28;124212;-78
2021/12/12 10:14:15;;;;;;;2.13;1.80;;;6.20;82.90;;;6.86;54.87;99727.78;4859344;28;114094;-80
2021/12/12 10:16:57;;;;;;;2.80;2.00;;;6.20;82.60;;;6.90;54.61;99722.56;4859469;28;114536;-77
2021/12/12 10:19:51;;;;;;;6.40;3.30;;;6.30;82.50;;;6.95;54.15;99726.16;4865088;28;124489;-77
2021/12/12 10:22:54;;;;;;;4.27;2.70;;;7.60;83.40;;;7.00;54.44;99726.19;4839761;29;123333;-78
2021/12/12 10:25:45;;;;;;;2.30;2.10;;;6.30;82.20;;;7.08;54.50;99719.38;4841746;29;114535;-79
2021/12/12 10:28:42;;;;;;;4.30;2.13;;;6.40;82.00;;;7.14;54.35;99717.47;4853188;29;114283;-79
2021/12/12 10:31:35;;;;;;;3.10;2.30;;;6.50;82.00;;;7.15;54.28;99724.66;4866514;28;123743;-77
2021/12/12 10:34:40;;;;;;;2.70;1.77;;;6.50;81.40;;;7.17;53.98;99712.25;4835549;29;124087;-81
2021/12/12 10:37:24;;;;;;;1.90;1.47;;;6.60;81.30;;;7.19;53.96;99715.59;4850438;28;113588;-78
2021/12/12 10:40:05;;;;;;;2.30;2.10;;;6.60;81.10;;;7.24;53.23;99723.03;4853310;28;112891;-78
2021/12/12 10:42:43;;;;;;;2.77;1.83;;;7.30;81.70;;;7.26;53.20;99720.84;4858257;28;123955;-78
2021/12/12 10:45:19;;;;;;;1.87;1.67;;;8.90;82.80;;;7.31;52.86;99715.38;4858074;28;123906;-80
2021/12/12 10:47:57;;;;;;;2.20;1.63;;;6.70;80.70;;;7.38;52.94;99724.19;4855117;28;114265;-77
2021/12/12 10:50:31;;;;;;;3.00;1.93;;;6.80;80.70;;;7.42;52.94;99724.50;4872290;28;114810;-79
2021/12/12 10:53:13;;;;;;;3.30;1.80;;;6.80;80.40;;;7.44;52.82;99723.13;4877090;28;123096;-78
2021/12/12 10:56:14;;;;;;;2.77;1.90;;;6.80;80.20;;;7.47;52.82;99724.53;4873738;28;123585;-77
2021/12/12 10:58:52;;;;;;;2.17;1.80;;;6.90;80.00;;;7.50;52.53;99724.78;4883841;28;115151;-80
2021/12/12 11:01:20;;;;;;;2.50;1.67;;;7.90;80.70;;;7.53;52.27;99726.19;4874591;28;114586;-78
2021/12/12 11:03:54;;;;;;;1.60;1.50;;;6.90;79.70;;;7.60;52.30;99725.91;4868556;28;124051;-78
2021/12/12 11:06:36;;;;;;;1.40;1.30;;;5.80;78.70;;;7.68;52.29;99717.13;4855472;28;123449;-83
2021/12/12 11:09:17;;;;;;;2.40;1.83;;;7.00;79.70;;;7.73;52.16;99708.91;4865589;28;112703;-78
2021/12/12 11:11:52;;;;;;;1.80;1.57;;;7.10;79.50;;;7.78;52.05;99703.41;4886162;28;114220;-77
2021/12/12 11:14:36;;;;;;;1.63;1.53;;;7.10;79.40;;;7.85;51.88;99704.00;4876225;28;124043;-78
2021/12/12 11:17:17;;;;;;;2.50;1.60;;;8.10;79.90;;;7.93;51.32;99708.13;4868703;28;123809;-78
2021/12/12 11:20:14;;;;;;;2.10;1.80;;;8.80;80.10;;;7.94;51.49;99710.59;4874886;28;114571;-77
2021/12/12 11:22:55;;;;;;;2.43;1.80;;;7.30;78.60;;;7.96;51.55;99697.41;4875565;28;114569;-76